sensor_id;sensor_type;location;lat;lon;timestamp;pressure;altitude;pressure_sealevel;temperature;humidity
42603;BME280;28233;55.748;48.752;2023-02-15T00:00:24;98877.66;;;-7.37;89.51
42603;BME280;28233;55.748;48.752;2023-02-15T00:02:26;98881.75;;;-7.35;88.93
42603;BME280;28233;55.748;48.752;2023-02-15T00:04:29;98877.22;;;-7.34;89.12
42603;BME280;28233;55.748;48.752;2023-02-15T00:06:49;98877.00;;;-7.33;89.63
42603;BME280;28233;55.748;48.752;2023-02-15T00:08:52;98881.75;;;-7.35;89.52
42603;BME280;28233;55.748;48.752;2023-02-15T00:11:09;98878.03;;;-7.34;89.61
42603;BME280;28233;55.748;48.752;2023-02-15T00:13:12;98878.88;;;-7.33;89.93
42603;BME280;28233;55.748;48.752;2023-02-15T00:15:14;98869.88;;;-7.39;89.97
42603;BME280;28233;55.748;48.752;2023-02-15T00:17:17;98885.00;;;-7.33;89.50
42603;BME280;28233;55.748;48.752;2023-02-15T00:19:20;98884.41;;;-7.35;89.79
42603;BME280;28233;55.748;48.752;2023-02-15T00:21:23;98882.41;;;-7.39;89.76
42603;BME280;28233;55.748;48.752;2023-02-15T00:23:26;98888.13;;;-7.36;89.91
42603;BME280;28233;55.748;48.752;2023-02-15T00:25:29;98884.63;;;-7.36;90.00
42603;BME280;28233;55.748;48.752;2023-02-15T00:27:33;98891.38;;;-7.34;89.92
42603;BME280;28233;55.748;48.752;2023-02-15T00:29:35;98885.69;;;-7.37;90.26
42603;BME280;28233;55.748;48.752;2023-02-15T00:31:38;98888.34;;;-7.37;89.60
42603;BME280;28233;55.748;48.752;2023-02-15T00:33:41;98879.81;;;-7.46;90.07
42603;BME280;28233;55.748;48.752;2023-02-15T00:35:44;98891.94;;;-7.50;89.93
42603;BME280;28233;55.748;48.752;2023-02-15T00:37:46;98880.31;;;-7.56;89.79
42603;BME280;28233;55.748;48.752;2023-02-15T00:39:49;98885.28;;;-7.59;89.82
42603;BME280;28233;55.748;48.752;2023-02-15T00:41:52;98893.69;;;-7.62;89.75
42603;BME280;28233;55.748;48.752;2023-02-15T00:43:55;98888.00;;;-7.66;90.08
42603;BME280;28233;55.748;48.752;2023-02-15T00:45:57;98891.53;;;-7.72;90.04
42603;BME280;28233;55.748;48.752;2023-02-15T00:48:01;98883.81;;;-7.80;89.04
42603;BME280;28233;55.748;48.752;2023-02-15T00:50:04;98889.84;;;-7.92;89.09
42603;BME280;28233;55.748;48.752;2023-02-15T00:52:07;98883.97;;;-8.00;89.74
42603;BME280;28233;55.748;48.752;2023-02-15T00:54:10;98889.56;;;-8.09;89.37
42603;BME280;28233;55.748;48.752;2023-02-15T00:56:13;98894.16;;;-8.16;89.60
42603;BME280;28233;55.748;48.752;2023-02-15T00:58:16;98893.38;;;-8.23;89.04
42603;BME280;28233;55.748;48.752;2023-02-15T01:00:18;98900.78;;;-8.32;89.86
42603;BME280;28233;55.748;48.752;2023-02-15T01:02:21;98892.03;;;-8.39;89.63
42603;BME280;28233;55.748;48.752;2023-02-15T01:04:23;98885.72;;;-8.44;89.69
42603;BME280;28233;55.748;48.752;2023-02-15T01:06:26;98892.91;;;-8.45;89.77
42603;BME280;28233;55.748;48.752;2023-02-15T01:08:29;98895.81;;;-8.46;90.21
42603;BME280;28233;55.748;48.752;2023-02-15T01:10:33;98898.22;;;-8.45;90.42
42603;BME280;28233;55.748;48.752;2023-02-15T01:12:36;98903.97;;;-8.41;90.30
42603;BME280;28233;55.748;48.752;2023-02-15T01:14:39;98891.66;;;-8.42;91.03
42603;BME280;28233;55.748;48.752;2023-02-15T01:16:42;98897.63;;;-8.47;90.52
42603;BME280;28233;55.748;48.752;2023-02-15T01:18:44;98896.97;;;-8.42;90.21
42603;BME280;28233;55.748;48.752;2023-02-15T01:20:47;98893.72;;;-8.44;90.55
42603;BME280;28233;55.748;48.752;2023-02-15T01:22:51;98901.06;;;-8.40;90.63
42603;BME280;28233;55.748;48.752;2023-02-15T01:24:54;98891.59;;;-8.36;90.13
42603;BME280;28233;55.748;48.752;2023-02-15T01:26:56;98901.00;;;-8.33;90.34
42603;BME280;28233;55.748;48.752;2023-02-15T01:28:59;98886.66;;;-8.32;90.46
42603;BME280;28233;55.748;48.752;2023-02-15T01:31:10;98892.00;;;-8.32;90.42
42603;BME280;28233;55.748;48.752;2023-02-15T01:33:12;98894.41;;;-8.31;89.99
42603;BME280;28233;55.748;48.752;2023-02-15T01:35:20;98895.22;;;-8.30;90.53
42603;BME280;28233;55.748;48.752;2023-02-15T01:37:23;98892.97;;;-8.26;90.34
42603;BME280;28233;55.748;48.752;2023-02-15T01:39:25;98892.97;;;-8.26;90.59
42603;BME280;28233;55.748;48.752;2023-02-15T01:41:28;98898.91;;;-8.24;90.29
42603;BME280;28233;55.748;48.752;2023-02-15T01:43:49;98897.66;;;-8.22;90.38
42603;BME280;28233;55.748;48.752;2023-02-15T01:45:52;98899.06;;;-8.19;90.28
42603;BME280;28233;55.748;48.752;2023-02-15T01:48:17;98902.53;;;-8.19;90.83
42603;BME280;28233;55.748;48.752;2023-02-15T01:50:29;98905.63;;;-8.15;90.36
42603;BME280;28233;55.748;48.752;2023-02-15T01:52:35;98901.50;;;-8.11;90.85
42603;BME280;28233;55.748;48.752;2023-02-15T01:54:41;98909.25;;;-8.10;90.17
42603;BME280;28233;55.748;48.752;2023-02-15T01:56:46;98901.06;;;-8.08;90.51
42603;BME280;28233;55.748;48.752;2023-02-15T01:58:49;98911.91;;;-8.10;90.23
42603;BME280;28233;55.748;48.752;2023-02-15T02:00:54;98904.97;;;-8.11;90.14
42603;BME280;28233;55.748;48.752;2023-02-15T02:03:01;98899.63;;;-8.11;90.10
42603;BME280;28233;55.748;48.752;2023-02-15T02:05:06;98908.25;;;-8.09;90.55
42603;BME280;28233;55.748;48.752;2023-02-15T02:07:09;98905.56;;;-8.09;90.56
42603;BME280;28233;55.748;48.752;2023-02-15T02:09:14;98901.25;;;-8.10;90.53
42603;BME280;28233;55.748;48.752;2023-02-15T02:11:17;98908.66;;;-8.12;89.84
42603;BME280;28233;55.748;48.752;2023-02-15T02:13:20;98901.09;;;-8.15;89.96
42603;BME280;28233;55.748;48.752;2023-02-15T02:15:31;98914.41;;;-8.15;90.52
42603;BME280;28233;55.748;48.752;2023-02-15T02:20:16;98919.31;;;-8.12;90.01
42603;BME280;28233;55.748;48.752;2023-02-15T02:39:49;98908.66;;;-8.12;90.06
42603;BME280;28233;55.748;48.752;2023-02-15T02:42:01;98914.81;;;-8.11;90.80
42603;BME280;28233;55.748;48.752;2023-02-15T02:44:14;98915.84;;;-8.12;90.04
42603;BME280;28233;55.748;48.752;2023-02-15T02:46:24;98918.50;;;-8.12;90.17
42603;BME280;28233;55.748;48.752;2023-02-15T02:48:32;98915.84;;;-8.12;90.15
42603;BME280;28233;55.748;48.752;2023-02-15T02:50:35;98923.03;;;-8.13;90.49
42603;BME280;28233;55.748;48.752;2023-02-15T02:52:42;98920.56;;;-8.14;90.73
42603;BME280;28233;55.748;48.752;2023-02-15T02:54:45;98929.38;;;-8.14;90.66
42603;BME280;28233;55.748;48.752;2023-02-15T02:56:49;98930.63;;;-8.16;90.18
42603;BME280;28233;55.748;48.752;2023-02-15T03:01:27;98929.00;;;-8.17;90.61
42603;BME280;28233;55.748;48.752;2023-02-15T03:03:42;98931.66;;;-8.17;90.57
42603;BME280;28233;55.748;48.752;2023-02-15T03:05:47;98933.28;;;-8.16;90.54
42603;BME280;28233;55.748;48.752;2023-02-15T03:07:54;98942.31;;;-8.17;90.74
42603;BME280;28233;55.748;48.752;2023-02-15T03:10:00;98934.53;;;-8.19;90.59
42603;BME280;28233;55.748;48.752;2023-02-15T03:12:05;98939.44;;;-8.16;90.72
42603;BME280;28233;55.748;48.752;2023-02-15T03:14:08;98944.78;;;-8.16;90.31
42603;BME280;28233;55.748;48.752;2023-02-15T03:16:12;98950.94;;;-8.15;90.80
42603;BME280;28233;55.748;48.752;2023-02-15T03:18:31;98949.88;;;-8.14;90.39
42603;BME280;28233;55.748;48.752;2023-02-15T03:20:37;98946.00;;;-8.18;90.91
42603;BME280;28233;55.748;48.752;2023-02-15T03:22:51;98955.84;;;-8.19;90.35
42603;BME280;28233;55.748;48.752;2023-02-15T03:25:03;98950.97;;;-8.22;90.40
42603;BME280;28233;55.748;48.752;2023-02-15T03:27:11;98951.00;;;-8.29;90.02
42603;BME280;28233;55.748;48.752;2023-02-15T03:29:23;98956.97;;;-8.33;90.07
42603;BME280;28233;55.748;48.752;2023-02-15T03:31:30;98956.78;;;-8.38;90.54
42603;BME280;28233;55.748;48.752;2023-02-15T03:33:36;98960.50;;;-8.39;90.91
42603;BME280;28233;55.748;48.752;2023-02-15T03:35:54;98962.53;;;-8.35;90.98
42603;BME280;28233;55.748;48.752;2023-02-15T03:38:00;98967.63;;;-8.33;91.75
42603;BME280;28233;55.748;48.752;2023-02-15T03:42:32;98956.75;;;-8.32;91.73
42603;BME280;28233;55.748;48.752;2023-02-15T03:44:54;98965.75;;;-8.33;91.54
42603;BME280;28233;55.748;48.752;2023-02-15T03:47:05;98967.84;;;-8.35;91.92
42603;BME280;28233;55.748;48.752;2023-02-15T03:51:21;98965.81;;;-8.39;90.95
42603;BME280;28233;55.748;48.752;2023-02-15T03:53:39;98971.59;;;-8.42;91.32
42603;BME280;28233;55.748;48.752;2023-02-15T03:55:49;98979.19;;;-8.46;91.58
42603;BME280;28233;55.748;48.752;2023-02-15T03:57:52;98969.97;;;-8.50;91.22
42603;BME280;28233;55.748;48.752;2023-02-15T04:00:22;98973.47;;;-8.56;91.44
42603;BME280;28233;55.748;48.752;2023-02-15T04:03:09;98969.63;;;-8.60;91.50
42603;BME280;28233;55.748;48.752;2023-02-15T04:05:13;98974.34;;;-8.62;91.49
42603;BME280;28233;55.748;48.752;2023-02-15T04:07:15;98968.00;;;-8.68;91.49
42603;BME280;28233;55.748;48.752;2023-02-15T04:09:19;98982.34;;;-8.69;91.94
42603;BME280;28233;55.748;48.752;2023-02-15T04:11:40;98975.81;;;-8.73;91.96
42603;BME280;28233;55.748;48.752;2023-02-15T04:13:42;98981.56;;;-8.76;92.17
42603;BME280;28233;55.748;48.752;2023-02-15T04:15:45;98980.94;;;-8.78;91.62
42603;BME280;28233;55.748;48.752;2023-02-15T04:18:08;98975.00;;;-8.80;92.11
42603;BME280;28233;55.748;48.752;2023-02-15T04:20:11;98980.13;;;-8.79;92.42
42603;BME280;28233;55.748;48.752;2023-02-15T04:22:32;98983.59;;;-8.78;92.84
42603;BME280;28233;55.748;48.752;2023-02-15T04:24:53;98981.56;;;-8.76;93.25
42603;BME280;28233;55.748;48.752;2023-02-15T04:27:14;98981.75;;;-8.71;93.33
42603;BME280;28233;55.748;48.752;2023-02-15T04:29:20;98992.41;;;-8.71;92.32
42603;BME280;28233;55.748;48.752;2023-02-15T04:31:22;98978.47;;;-8.73;92.63
42603;BME280;28233;55.748;48.752;2023-02-15T04:33:26;98996.72;;;-8.70;92.73
42603;BME280;28233;55.748;48.752;2023-02-15T04:35:28;98983.41;;;-8.70;92.95
42603;BME280;28233;55.748;48.752;2023-02-15T04:37:32;98992.56;;;-8.66;92.46
42603;BME280;28233;55.748;48.752;2023-02-15T04:39:35;98993.00;;;-8.62;92.74
42603;BME280;28233;55.748;48.752;2023-02-15T04:41:37;98991.94;;;-8.61;92.96
42603;BME280;28233;55.748;48.752;2023-02-15T04:43:40;98991.75;;;-8.60;92.84
42603;BME280;28233;55.748;48.752;2023-02-15T04:45:48;98992.97;;;-8.56;92.84
42603;BME280;28233;55.748;48.752;2023-02-15T04:47:51;98990.69;;;-8.52;92.68
42603;BME280;28233;55.748;48.752;2023-02-15T04:49:54;98998.47;;;-8.51;92.24
42603;BME280;28233;55.748;48.752;2023-02-15T04:51:59;99000.91;;;-8.49;92.49
42603;BME280;28233;55.748;48.752;2023-02-15T04:54:01;98999.69;;;-8.46;92.49
42603;BME280;28233;55.748;48.752;2023-02-15T04:56:04;99003.56;;;-8.42;92.10
42603;BME280;28233;55.748;48.752;2023-02-15T04:58:07;98997.78;;;-8.39;92.22
42603;BME280;28233;55.748;48.752;2023-02-15T05:00:10;98995.50;;;-8.36;91.91
42603;BME280;28233;55.748;48.752;2023-02-15T05:02:13;98994.25;;;-8.33;91.91
42603;BME280;28233;55.748;48.752;2023-02-15T05:04:16;98997.09;;;-8.28;91.84
42603;BME280;28233;55.748;48.752;2023-02-15T05:06:19;98998.16;;;-8.29;91.28
42603;BME280;28233;55.748;48.752;2023-02-15T05:08:21;99006.97;;;-8.29;90.79
42603;BME280;28233;55.748;48.752;2023-02-15T05:10:24;98997.53;;;-8.31;91.11
42603;BME280;28233;55.748;48.752;2023-02-15T05:12:26;98994.69;;;-8.36;90.43
42603;BME280;28233;55.748;48.752;2023-02-15T05:14:29;99001.81;;;-8.30;90.81
42603;BME280;28233;55.748;48.752;2023-02-15T05:16:32;99000.19;;;-8.31;90.59
42603;BME280;28233;55.748;48.752;2023-02-15T05:18:35;99005.94;;;-8.27;90.34
42603;BME280;28233;55.748;48.752;2023-02-15T05:20:37;99015.56;;;-8.26;90.63
42603;BME280;28233;55.748;48.752;2023-02-15T05:22:40;99008.59;;;-8.27;89.84
42603;BME280;28233;55.748;48.752;2023-02-15T05:24:43;99010.66;;;-8.30;89.84
42603;BME280;28233;55.748;48.752;2023-02-15T05:27:05;99003.69;;;-8.31;89.24
42603;BME280;28233;55.748;48.752;2023-02-15T05:29:26;99008.84;;;-8.36;88.94
42603;BME280;28233;55.748;48.752;2023-02-15T05:31:30;99008.22;;;-8.38;88.55
42603;BME280;28233;55.748;48.752;2023-02-15T05:33:33;99006.22;;;-8.42;88.25
42603;BME280;28233;55.748;48.752;2023-02-15T05:35:36;99007.25;;;-8.43;88.20
42603;BME280;28233;55.748;48.752;2023-02-15T05:37:39;99003.19;;;-8.46;88.84
42603;BME280;28233;55.748;48.752;2023-02-15T05:39:42;99008.50;;;-8.46;89.09
42603;BME280;28233;55.748;48.752;2023-02-15T05:41:44;99008.06;;;-8.43;88.68
42603;BME280;28233;55.748;48.752;2023-02-15T05:43:47;99008.03;;;-8.36;88.52
42603;BME280;28233;55.748;48.752;2023-02-15T05:45:52;99001.66;;;-8.35;88.60
42603;BME280;28233;55.748;48.752;2023-02-15T05:47:55;99001.81;;;-8.30;88.04
42603;BME280;28233;55.748;48.752;2023-02-15T05:49:57;99008.00;;;-8.30;87.89
42603;BME280;28233;55.748;48.752;2023-02-15T05:52:00;99013.09;;;-8.28;87.83
42603;BME280;28233;55.748;48.752;2023-02-15T05:54:03;99001.19;;;-8.25;87.33
42603;BME280;28233;55.748;48.752;2023-02-15T05:56:07;99007.75;;;-8.21;87.59
42603;BME280;28233;55.748;48.752;2023-02-15T05:58:10;99015.53;;;-8.20;87.17
42603;BME280;28233;55.748;48.752;2023-02-15T06:00:13;99005.03;;;-8.15;86.97
42603;BME280;28233;55.748;48.752;2023-02-15T06:02:16;99008.94;;;-8.11;87.40
42603;BME280;28233;55.748;48.752;2023-02-15T06:04:19;99020.19;;;-8.09;86.74
42603;BME280;28233;55.748;48.752;2023-02-15T06:06:23;99009.31;;;-8.07;86.79
42603;BME280;28233;55.748;48.752;2023-02-15T06:08:28;99012.81;;;-8.06;86.41
42603;BME280;28233;55.748;48.752;2023-02-15T06:10:31;99013.63;;;-8.06;86.25
42603;BME280;28233;55.748;48.752;2023-02-15T06:12:33;99014.63;;;-8.07;86.09
42603;BME280;28233;55.748;48.752;2023-02-15T06:14:36;99016.94;;;-8.11;86.31
42603;BME280;28233;55.748;48.752;2023-02-15T06:16:39;99016.31;;;-8.13;85.96
42603;BME280;28233;55.748;48.752;2023-02-15T06:18:41;99009.78;;;-8.17;85.67
42603;BME280;28233;55.748;48.752;2023-02-15T06:20:45;99005.47;;;-8.18;85.86
42603;BME280;28233;55.748;48.752;2023-02-15T06:22:49;99016.75;;;-8.16;85.96
42603;BME280;28233;55.748;48.752;2023-02-15T06:24:51;99014.09;;;-8.16;86.02
42603;BME280;28233;55.748;48.752;2023-02-15T06:26:54;99018.38;;;-8.15;86.26
42603;BME280;28233;55.748;48.752;2023-02-15T06:28:57;99013.25;;;-8.16;85.55
42603;BME280;28233;55.748;48.752;2023-02-15T06:31:00;99015.28;;;-8.12;85.63
42603;BME280;28233;55.748;48.752;2023-02-15T06:33:03;99027.78;;;-8.12;85.66
42603;BME280;28233;55.748;48.752;2023-02-15T06:35:06;99024.69;;;-8.09;85.92
42603;BME280;28233;55.748;48.752;2023-02-15T06:37:08;99028.81;;;-8.06;85.96
42603;BME280;28233;55.748;48.752;2023-02-15T06:39:11;99017.09;;;-8.05;85.52
42603;BME280;28233;55.748;48.752;2023-02-15T06:41:14;99022.59;;;-8.00;85.42
42603;BME280;28233;55.748;48.752;2023-02-15T06:43:16;99022.78;;;-7.95;85.54
42603;BME280;28233;55.748;48.752;2023-02-15T06:45:19;99010.66;;;-7.91;84.75
42603;BME280;28233;55.748;48.752;2023-02-15T06:47:22;99018.81;;;-7.86;85.22
42603;BME280;28233;55.748;48.752;2023-02-15T06:49:24;99014.50;;;-7.80;84.51
42603;BME280;28233;55.748;48.752;2023-02-15T06:51:27;99020.22;;;-7.77;84.23
42603;BME280;28233;55.748;48.752;2023-02-15T06:53:30;99011.34;;;-7.71;84.55
42603;BME280;28233;55.748;48.752;2023-02-15T06:55:32;99017.22;;;-7.62;84.19
42603;BME280;28233;55.748;48.752;2023-02-15T06:57:35;99014.53;;;-7.55;83.46
42603;BME280;28233;55.748;48.752;2023-02-15T06:59:38;99021.66;;;-7.49;83.65
42603;BME280;28233;55.748;48.752;2023-02-15T07:01:41;99023.03;;;-7.40;83.27
42603;BME280;28233;55.748;48.752;2023-02-15T07:03:44;99018.91;;;-7.36;82.54
42603;BME280;28233;55.748;48.752;2023-02-15T07:05:48;99025.00;;;-7.29;81.59
42603;BME280;28233;55.748;48.752;2023-02-15T07:07:51;99019.03;;;-7.24;81.32
42603;BME280;28233;55.748;48.752;2023-02-15T07:09:54;99023.00;;;-7.15;81.34
42603;BME280;28233;55.748;48.752;2023-02-15T07:11:56;99023.81;;;-7.08;80.50
42603;BME280;28233;55.748;48.752;2023-02-15T07:14:18;99023.34;;;-7.05;79.56
42603;BME280;28233;55.748;48.752;2023-02-15T07:16:21;99034.84;;;-7.04;79.51
42603;BME280;28233;55.748;48.752;2023-02-15T07:18:24;99015.56;;;-7.06;79.01
42603;BME280;28233;55.748;48.752;2023-02-15T07:20:27;99041.00;;;-7.04;79.00
42603;BME280;28233;55.748;48.752;2023-02-15T07:22:31;99033.59;;;-7.02;79.37
42603;BME280;28233;55.748;48.752;2023-02-15T07:24:33;99037.06;;;-7.01;78.93
42603;BME280;28233;55.748;48.752;2023-02-15T07:26:36;99030.25;;;-6.97;79.50
42603;BME280;28233;55.748;48.752;2023-02-15T07:28:39;99039.84;;;-6.89;78.41
42603;BME280;28233;55.748;48.752;2023-02-15T07:30:41;99043.13;;;-6.87;77.94
42603;BME280;28233;55.748;48.752;2023-02-15T07:32:44;99046.97;;;-6.83;78.04
42603;BME280;28233;55.748;48.752;2023-02-15T07:35:07;99045.13;;;-6.83;77.90
42603;BME280;28233;55.748;48.752;2023-02-15T07:37:09;99039.56;;;-6.81;77.28
42603;BME280;28233;55.748;48.752;2023-02-15T07:39:12;99042.59;;;-6.77;77.60
42603;BME280;28233;55.748;48.752;2023-02-15T07:41:15;99044.41;;;-6.71;78.19
42603;BME280;28233;55.748;48.752;2023-02-15T07:43:18;99037.78;;;-6.69;77.26
42603;BME280;28233;55.748;48.752;2023-02-15T07:45:22;99038.59;;;-6.68;77.37
42603;BME280;28233;55.748;48.752;2023-02-15T07:47:26;99033.72;;;-6.71;76.79
42603;BME280;28233;55.748;48.752;2023-02-15T07:49:28;99047.47;;;-6.68;77.49
42603;BME280;28233;55.748;48.752;2023-02-15T07:51:31;99043.06;;;-6.62;77.09
42603;BME280;28233;55.748;48.752;2023-02-15T07:53:40;99045.91;;;-6.57;76.65
42603;BME280;28233;55.748;48.752;2023-02-15T07:55:43;99051.03;;;-6.55;76.27
42603;BME280;28233;55.748;48.752;2023-02-15T07:57:48;99045.03;;;-6.51;76.71
42603;BME280;28233;55.748;48.752;2023-02-15T07:59:51;99037.22;;;-6.52;75.83
42603;BME280;28233;55.748;48.752;2023-02-15T08:01:53;99048.44;;;-6.44;76.10
42603;BME280;28233;55.748;48.752;2023-02-15T08:03:59;99042.28;;;-6.44;76.69
42603;BME280;28233;55.748;48.752;2023-02-15T08:06:02;99051.72;;;-6.42;76.19
42603;BME280;28233;55.748;48.752;2023-02-15T08:08:05;99045.69;;;-6.37;75.92
42603;BME280;28233;55.748;48.752;2023-02-15T08:10:08;99049.53;;;-6.33;75.96
42603;BME280;28233;55.748;48.752;2023-02-15T08:12:11;99038.84;;;-6.33;75.73
42603;BME280;28233;55.748;48.752;2023-02-15T08:14:17;99042.03;;;-6.24;75.12
42603;BME280;28233;55.748;48.752;2023-02-15T08:16:30;99042.31;;;-6.14;75.58
42603;BME280;28233;55.748;48.752;2023-02-15T08:18:33;99043.63;;;-6.05;75.42
42603;BME280;28233;55.748;48.752;2023-02-15T08:20:36;99047.88;;;-5.97;74.73
42603;BME280;28233;55.748;48.752;2023-02-15T08:22:40;99048.81;;;-5.91;74.40
42603;BME280;28233;55.748;48.752;2023-02-15T08:24:42;99044.97;;;-5.84;74.96
42603;BME280;28233;55.748;48.752;2023-02-15T08:26:46;99049.44;;;-5.78;75.18
42603;BME280;28233;55.748;48.752;2023-02-15T08:28:51;99042.72;;;-5.68;74.34
42603;BME280;28233;55.748;48.752;2023-02-15T08:30:54;99050.41;;;-5.60;74.23
42603;BME280;28233;55.748;48.752;2023-02-15T08:32:57;99053.69;;;-5.58;73.82
42603;BME280;28233;55.748;48.752;2023-02-15T08:35:00;99054.66;;;-5.53;73.25
42603;BME280;28233;55.748;48.752;2023-02-15T08:37:04;99051.84;;;-5.46;72.67
42603;BME280;28233;55.748;48.752;2023-02-15T08:39:08;99060.59;;;-5.39;72.81
42603;BME280;28233;55.748;48.752;2023-02-15T08:41:20;99051.66;;;-5.33;73.09
42603;BME280;28233;55.748;48.752;2023-02-15T08:43:24;99053.69;;;-5.16;72.31
42603;BME280;28233;55.748;48.752;2023-02-15T08:45:27;99048.34;;;-5.04;72.00
42603;BME280;28233;55.748;48.752;2023-02-15T08:47:30;99053.22;;;-4.90;71.44
42603;BME280;28233;55.748;48.752;2023-02-15T08:49:32;99047.06;;;-4.78;70.76
42603;BME280;28233;55.748;48.752;2023-02-15T08:51:36;99052.09;;;-4.58;70.37
42603;BME280;28233;55.748;48.752;2023-02-15T08:53:41;99051.22;;;-4.47;69.78
42603;BME280;28233;55.748;48.752;2023-02-15T08:55:45;99053.56;;;-4.39;69.13
42603;BME280;28233;55.748;48.752;2023-02-15T08:57:47;99045.97;;;-4.30;69.25
42603;BME280;28233;55.748;48.752;2023-02-15T08:59:50;99044.53;;;-4.21;68.78
42603;BME280;28233;55.748;48.752;2023-02-15T09:01:53;99049.19;;;-4.16;67.92
42603;BME280;28233;55.748;48.752;2023-02-15T09:03:58;99049.31;;;-4.11;68.05
42603;BME280;28233;55.748;48.752;2023-02-15T09:06:02;99042.56;;;-4.14;67.16
42603;BME280;28233;55.748;48.752;2023-02-15T09:08:05;99047.81;;;-4.19;67.87
42603;BME280;28233;55.748;48.752;2023-02-15T09:10:08;99052.13;;;-4.18;68.42
42603;BME280;28233;55.748;48.752;2023-02-15T09:12:11;99048.28;;;-4.22;68.34
42603;BME280;28233;55.748;48.752;2023-02-15T09:14:19;99057.84;;;-4.26;68.10
42603;BME280;28233;55.748;48.752;2023-02-15T09:16:31;99047.72;;;-4.36;67.46
42603;BME280;28233;55.748;48.752;2023-02-15T09:18:38;99052.19;;;-4.41;67.47
42603;BME280;28233;55.748;48.752;2023-02-15T09:20:41;99058.72;;;-4.49;67.45
42603;BME280;28233;55.748;48.752;2023-02-15T09:22:45;99061.75;;;-4.57;67.81
42603;BME280;28233;55.748;48.752;2023-02-15T09:24:48;99048.00;;;-4.61;67.98
42603;BME280;28233;55.748;48.752;2023-02-15T09:26:51;99060.00;;;-4.63;67.90
42603;BME280;28233;55.748;48.752;2023-02-15T09:28:56;99060.34;;;-4.72;67.70
42603;BME280;28233;55.748;48.752;2023-02-15T09:31:14;99056.16;;;-4.91;67.56
42603;BME280;28233;55.748;48.752;2023-02-15T09:33:17;99056.25;;;-4.98;68.51
42603;BME280;28233;55.748;48.752;2023-02-15T09:35:21;99056.16;;;-5.03;68.55
42603;BME280;28233;55.748;48.752;2023-02-15T09:37:25;99044.72;;;-5.10;69.13
42603;BME280;28233;55.748;48.752;2023-02-15T09:39:27;99062.22;;;-4.96;69.43
42603;BME280;28233;55.748;48.752;2023-02-15T09:46:33;99068.88;;;-4.63;68.91
42603;BME280;28233;55.748;48.752;2023-02-15T09:48:43;99064.78;;;-4.65;68.34
42603;BME280;28233;55.748;48.752;2023-02-15T09:51:10;99068.16;;;-4.70;68.80
42603;BME280;28233;55.748;48.752;2023-02-15T10:05:44;99065.59;;;-4.77;68.59
42603;BME280;28233;55.748;48.752;2023-02-15T10:26:47;99084.25;;;-4.35;67.08
42603;BME280;28233;55.748;48.752;2023-02-15T10:29:09;99080.41;;;-4.51;67.21
42603;BME280;28233;55.748;48.752;2023-02-15T10:31:27;99077.84;;;-4.57;67.17
42603;BME280;28233;55.748;48.752;2023-02-15T10:33:40;99082.28;;;-4.63;67.71
42603;BME280;28233;55.748;48.752;2023-02-15T10:35:57;99084.59;;;-4.67;67.86
42603;BME280;28233;55.748;48.752;2023-02-15T10:40:49;99090.06;;;-4.61;67.66
42603;BME280;28233;55.748;48.752;2023-02-15T10:45:36;99094.38;;;-4.72;68.75
42603;BME280;28233;55.748;48.752;2023-02-15T10:48:03;99097.66;;;-4.82;68.76
42603;BME280;28233;55.748;48.752;2023-02-15T11:04:51;99116.13;;;-3.98;67.94
42603;BME280;28233;55.748;48.752;2023-02-15T11:06:59;99119.47;;;-3.79;67.28
42603;BME280;28233;55.748;48.752;2023-02-15T11:09:09;99112.09;;;-3.72;66.32
42603;BME280;28233;55.748;48.752;2023-02-15T11:11:23;99119.22;;;-3.77;66.09
42603;BME280;28233;55.748;48.752;2023-02-15T11:13:32;99123.53;;;-3.76;66.23
42603;BME280;28233;55.748;48.752;2023-02-15T11:15:44;99122.84;;;-3.84;66.09
42603;BME280;28233;55.748;48.752;2023-02-15T11:17:49;99127.13;;;-3.99;66.01
42603;BME280;28233;55.748;48.752;2023-02-15T11:20:25;99137.97;;;-4.06;66.94
42603;BME280;28233;55.748;48.752;2023-02-15T11:22:32;99134.50;;;-4.18;67.15
42603;BME280;28233;55.748;48.752;2023-02-15T11:24:42;99139.59;;;-4.29;67.11
42603;BME280;28233;55.748;48.752;2023-02-15T11:26:56;99142.75;;;-4.43;67.35
42603;BME280;28233;55.748;48.752;2023-02-15T11:29:12;99144.97;;;-4.52;67.55
42603;BME280;28233;55.748;48.752;2023-02-15T11:31:21;99147.31;;;-4.68;67.64
42603;BME280;28233;55.748;48.752;2023-02-15T11:33:29;99146.44;;;-4.80;68.02
42603;BME280;28233;55.748;48.752;2023-02-15T11:35:37;99147.00;;;-4.90;68.10
42603;BME280;28233;55.748;48.752;2023-02-15T11:38:21;99153.31;;;-4.96;69.09
42603;BME280;28233;55.748;48.752;2023-02-15T11:40:34;99152.94;;;-4.99;69.05
42603;BME280;28233;55.748;48.752;2023-02-15T11:42:37;99164.81;;;-5.07;69.86
42603;BME280;28233;55.748;48.752;2023-02-15T11:47:10;99160.09;;;-5.23;70.20
42603;BME280;28233;55.748;48.752;2023-02-15T11:49:46;99169.19;;;-5.24;70.96
42603;BME280;28233;55.748;48.752;2023-02-15T11:51:49;99167.91;;;-5.22;71.21
42603;BME280;28233;55.748;48.752;2023-02-15T11:53:53;99174.28;;;-5.23;71.21
42603;BME280;28233;55.748;48.752;2023-02-15T11:55:56;99177.66;;;-5.27;71.71
42603;BME280;28233;55.748;48.752;2023-02-15T11:58:26;99177.75;;;-5.34;71.39
42603;BME280;28233;55.748;48.752;2023-02-15T12:00:43;99178.66;;;-5.40;71.76
42603;BME280;28233;55.748;48.752;2023-02-15T12:02:52;99184.22;;;-5.42;71.42
42603;BME280;28233;55.748;48.752;2023-02-15T12:04:59;99185.28;;;-5.43;72.34
42603;BME280;28233;55.748;48.752;2023-02-15T12:07:17;99187.44;;;-5.52;72.04
42603;BME280;28233;55.748;48.752;2023-02-15T12:09:48;99192.00;;;-5.52;72.28
42603;BME280;28233;55.748;48.752;2023-02-15T12:11:51;99190.06;;;-5.63;72.10
42603;BME280;28233;55.748;48.752;2023-02-15T12:14:01;99190.72;;;-5.68;72.80
42603;BME280;28233;55.748;48.752;2023-02-15T12:16:06;99200.03;;;-5.70;72.90
42603;BME280;28233;55.748;48.752;2023-02-15T12:18:20;99199.75;;;-5.81;72.32
42603;BME280;28233;55.748;48.752;2023-02-15T12:20:24;99204.56;;;-5.89;72.73
42603;BME280;28233;55.748;48.752;2023-02-15T12:22:30;99204.44;;;-5.94;72.44
42603;BME280;28233;55.748;48.752;2023-02-15T12:24:38;99209.63;;;-6.00;73.42
42603;BME280;28233;55.748;48.752;2023-02-15T12:27:13;99206.59;;;-6.03;72.88